createdAt,value
2018-02-14T00:01:48.784Z,87.60
2018-02-14T00:04:16.270Z,86.00
2018-02-14T00:06:43.754Z,85.28
2018-02-14T00:09:11.253Z,85.30
2018-02-14T00:11:39.613Z,85.51
2018-02-14T00:14:07.125Z,85.45
2018-02-14T00:16:34.738Z,85.75
2018-02-14T00:19:02.261Z,84.73
2018-02-14T00:21:29.757Z,85.79
2018-02-14T00:23:57.277Z,87.65
2018-02-14T00:26:24.792Z,87.81
2018-02-14T00:28:52.293Z,87.79
2018-02-14T00:31:19.806Z,88.19
2018-02-14T00:33:47.282Z,87.50
2018-02-14T00:36:14.775Z,88.02
2018-02-14T00:38:42.265Z,86.60
2018-02-14T00:41:09.757Z,88.20
2018-02-14T00:43:37.248Z,88.01
2018-02-14T00:46:04.720Z,86.44
2018-02-14T00:48:32.228Z,85.78
2018-02-14T00:50:59.698Z,87.34
2018-02-14T00:53:27.194Z,86.84
2018-02-14T00:55:54.682Z,85.60
2018-02-14T00:58:22.157Z,84.76
2018-02-14T01:00:49.667Z,84.21
2018-02-14T01:03:17.141Z,83.91
2018-02-14T01:05:44.632Z,83.54
2018-02-14T01:08:12.118Z,84.50
2018-02-14T01:10:39.616Z,84.24
2018-02-14T01:13:07.122Z,84.22
2018-02-14T01:15:34.628Z,84.01
2018-02-14T01:18:02.144Z,86.70
2018-02-14T01:20:35.429Z,87.35
2018-02-14T01:23:02.939Z,87.03
2018-02-14T01:25:30.448Z,88.22
2018-02-14T01:27:57.964Z,88.48
2018-02-14T01:30:25.485Z,87.37
2018-02-14T01:32:53.043Z,87.84
2018-02-14T01:35:20.559Z,89.34
2018-02-14T01:37:48.056Z,88.84
2018-02-14T01:40:15.564Z,88.27
2018-02-14T01:42:43.060Z,87.48
2018-02-14T01:45:10.593Z,87.12
2018-02-14T01:47:38.111Z,86.72
2018-02-14T01:50:05.611Z,87.77
2018-02-14T01:52:33.106Z,87.82
2018-02-14T01:55:00.654Z,88.19
2018-02-14T01:57:28.145Z,88.89
2018-02-14T01:59:55.618Z,88.79
2018-02-14T02:02:23.136Z,88.53
2018-02-14T02:04:50.656Z,89.44
2018-02-14T02:07:18.117Z,88.87
2018-02-14T02:09:45.621Z,88.31
2018-02-14T02:12:13.150Z,89.55
2018-02-14T02:14:40.654Z,90.52
2018-02-14T02:17:08.150Z,90.51
2018-02-14T02:19:35.652Z,91.65
2018-02-14T02:22:03.172Z,91.18
2018-02-14T02:24:30.646Z,91.67
2018-02-14T02:26:58.140Z,91.16
2018-02-14T02:29:25.648Z,91.30
2018-02-14T02:31:53.126Z,90.61
2018-02-14T02:34:20.609Z,91.82
2018-02-14T02:36:48.088Z,91.40
2018-02-14T02:39:27.353Z,91.00
2018-02-14T02:41:54.834Z,91.36
2018-02-14T02:44:22.360Z,90.77
2018-02-14T02:46:49.860Z,90.80
2018-02-14T02:49:17.353Z,91.21
2018-02-14T02:51:44.823Z,91.58
2018-02-14T02:54:12.320Z,92.00
2018-02-14T02:56:39.797Z,91.12
2018-02-14T02:59:07.279Z,90.79
2018-02-14T03:01:34.772Z,90.97
2018-02-14T03:04:02.256Z,91.02
2018-02-14T03:06:29.754Z,91.08
2018-02-14T03:08:57.256Z,91.41
2018-02-14T03:11:24.752Z,91.50
2018-02-14T03:13:52.252Z,91.17
2018-02-14T03:16:19.770Z,91.81
2018-02-14T03:18:47.272Z,91.60
2018-02-14T03:21:14.749Z,91.09
2018-02-14T03:23:42.244Z,90.77
2018-02-14T03:26:09.748Z,90.52
2018-02-14T03:28:37.256Z,90.60
2018-02-14T03:31:06.705Z,89.53
2018-02-14T03:33:34.192Z,90.45
2018-02-14T03:36:01.671Z,90.46
2018-02-14T03:38:29.150Z,91.83
2018-02-14T03:40:56.645Z,91.47
2018-02-14T03:43:24.134Z,91.08
2018-02-14T03:45:51.650Z,91.43
2018-02-14T03:48:19.133Z,92.41
2018-02-14T03:50:46.617Z,92.23
2018-02-14T03:53:14.116Z,91.31
2018-02-14T03:55:41.613Z,91.29
2018-02-14T03:58:09.089Z,91.54
2018-02-14T04:00:36.584Z,92.20
2018-02-14T04:03:04.089Z,91.79
2018-02-14T04:05:31.570Z,91.28
2018-02-14T04:07:59.083Z,91.48
2018-02-14T04:10:26.570Z,92.20
2018-02-14T04:12:54.075Z,91.18
2018-02-14T04:15:21.592Z,90.73
2018-02-14T04:17:49.106Z,91.63
2018-02-14T04:20:16.598Z,92.20
2018-02-14T04:22:44.112Z,91.88
2018-02-14T04:25:11.599Z,91.05
2018-02-14T04:27:39.086Z,91.01
2018-02-14T04:30:06.574Z,90.93
2018-02-14T04:32:34.119Z,90.44
2018-02-14T04:35:01.597Z,90.43
2018-02-14T04:37:29.101Z,90.43
2018-02-14T04:39:58.546Z,90.22
2018-02-14T04:42:26.048Z,89.96
2018-02-14T04:44:53.555Z,90.02
2018-02-14T04:47:24.001Z,89.93
2018-02-14T04:49:51.535Z,89.93
2018-02-14T04:52:19.018Z,90.23
2018-02-14T04:54:46.501Z,90.04
2018-02-14T04:57:13.997Z,90.00
2018-02-14T04:59:41.546Z,90.15
2018-02-14T05:02:09.068Z,90.60
2018-02-14T05:04:39.189Z,90.57
2018-02-14T05:07:06.767Z,91.24
2018-02-14T05:09:34.289Z,91.66
2018-02-14T05:12:01.919Z,91.07
2018-02-14T05:14:29.483Z,90.93
2018-02-14T05:16:56.982Z,91.48
2018-02-14T05:19:24.517Z,91.71
2018-02-14T05:21:52.039Z,91.67
2018-02-14T05:24:19.545Z,91.71
2018-02-14T05:26:49.207Z,91.93
2018-02-14T05:29:16.733Z,92.62
2018-02-14T05:31:44.267Z,93.08
2018-02-14T05:34:11.794Z,92.80
2018-02-14T05:36:39.328Z,92.56
2018-02-14T05:39:06.864Z,92.96
2018-02-14T05:41:34.537Z,93.16
2018-02-14T05:44:02.272Z,93.06
2018-02-14T05:46:29.880Z,92.92
2018-02-14T05:48:57.473Z,92.40
2018-02-14T05:51:25.089Z,91.66
2018-02-14T05:53:52.621Z,91.45
2018-02-14T05:56:20.160Z,91.28
2018-02-14T05:58:47.666Z,91.12
2018-02-14T06:01:18.151Z,91.28
2018-02-14T06:03:45.817Z,91.03
2018-02-14T06:06:13.392Z,91.26
2018-02-14T06:08:40.975Z,92.20
2018-02-14T06:11:08.577Z,91.81
2018-02-14T06:13:36.093Z,91.60
2018-02-14T06:16:03.649Z,91.32
2018-02-14T06:18:31.186Z,91.34
2018-02-14T06:20:58.855Z,91.20
2018-02-14T06:23:26.588Z,90.77
2018-02-14T06:25:54.117Z,90.66
2018-02-14T06:28:21.752Z,91.06
2018-02-14T06:30:49.283Z,90.79
2018-02-14T06:33:16.820Z,91.13
2018-02-14T06:35:44.339Z,91.27
2018-02-14T06:38:11.875Z,91.22
2018-02-14T06:40:39.557Z,91.64
2018-02-14T06:43:07.224Z,91.09
2018-02-14T06:45:34.757Z,91.21
2018-02-14T06:48:02.241Z,91.21
2018-02-14T06:50:29.764Z,91.36
2018-02-14T06:52:57.260Z,91.91
2018-02-14T06:55:24.823Z,92.58
2018-02-14T06:57:52.344Z,92.54
2018-02-14T07:00:19.857Z,92.64
2018-02-14T07:02:47.364Z,92.25
2018-02-14T07:05:14.892Z,92.41
2018-02-14T07:07:42.382Z,91.34
2018-02-14T07:10:09.881Z,91.71
2018-02-14T07:12:37.390Z,92.00
2018-02-14T07:15:04.933Z,91.70
2018-02-14T07:17:32.422Z,91.96
2018-02-14T07:19:59.985Z,89.73
2018-02-14T07:22:27.514Z,89.41
2018-02-14T07:24:55.105Z,88.32
2018-02-14T07:27:22.590Z,85.87
2018-02-14T07:29:50.106Z,85.08
2018-02-14T07:32:17.609Z,84.10
2018-02-14T07:34:45.141Z,83.11
2018-02-14T07:37:12.691Z,82.70
2018-02-14T07:39:40.222Z,83.34
2018-02-14T07:42:07.751Z,83.16
2018-02-14T07:44:35.272Z,83.86
2018-02-14T07:47:02.799Z,81.22
2018-02-14T07:49:30.362Z,79.49
2018-02-14T07:51:57.887Z,80.25
2018-02-14T07:54:25.401Z,79.84
2018-02-14T07:56:52.939Z,77.86
2018-02-14T07:59:20.549Z,78.07
2018-02-14T08:01:48.072Z,77.77
2018-02-14T08:04:15.570Z,77.75
2018-02-14T08:06:43.094Z,77.59
2018-02-14T08:09:10.614Z,78.34
2018-02-14T08:11:38.109Z,78.03
2018-02-14T08:14:05.624Z,76.16
2018-02-14T08:16:33.127Z,75.43
2018-02-14T08:19:00.643Z,72.32
2018-02-14T08:21:28.137Z,73.30
2018-02-14T08:23:55.618Z,73.77
2018-02-14T08:26:23.107Z,71.14
2018-02-14T08:28:50.622Z,68.23
2018-02-14T08:31:18.144Z,68.89
2018-02-14T08:33:45.668Z,66.73
2018-02-14T08:36:13.164Z,67.24
2018-02-14T08:38:40.705Z,66.66
2018-02-14T08:41:08.282Z,67.18
2018-02-14T08:43:35.840Z,68.06
2018-02-14T08:46:03.337Z,65.24
2018-02-14T08:48:30.836Z,62.30
2018-02-14T08:50:58.390Z,63.66
2018-02-14T08:53:25.913Z,60.72
2018-02-14T08:55:53.400Z,58.17
2018-02-14T08:58:20.968Z,60.86
2018-02-14T09:00:48.472Z,62.59
2018-02-14T09:03:16.032Z,62.38
2018-02-14T09:05:43.560Z,64.22
2018-02-14T09:08:11.150Z,64.26
2018-02-14T09:10:38.736Z,62.90
2018-02-14T09:13:06.262Z,63.00
2018-02-14T09:15:33.757Z,61.76
2018-02-14T09:18:01.420Z,60.33
2018-02-14T09:20:28.925Z,58.07
2018-02-14T09:22:56.435Z,56.69
2018-02-14T09:25:23.930Z,59.73
2018-02-14T09:27:51.469Z,55.77
2018-02-14T09:30:19.021Z,51.87
2018-02-14T09:32:46.515Z,54.88
2018-02-14T09:35:14.033Z,51.97
2018-02-14T09:37:41.551Z,51.45
2018-02-14T09:40:09.363Z,49.35
2018-02-14T09:42:36.845Z,48.69
2018-02-14T09:45:04.376Z,50.35
2018-02-14T09:47:31.990Z,47.95
2018-02-14T09:49:59.512Z,45.29
2018-02-14T09:52:27.039Z,48.40
2018-02-14T09:54:54.601Z,46.84
2018-02-14T09:57:22.168Z,47.10
2018-02-14T09:59:49.718Z,47.43
2018-02-14T10:02:17.238Z,47.45
2018-02-14T10:04:44.837Z,47.31
2018-02-14T10:07:12.359Z,49.58
2018-02-14T10:09:39.901Z,49.10
2018-02-14T10:12:07.444Z,47.91
2018-02-14T10:14:34.933Z,52.64
2018-02-14T10:17:02.456Z,51.48
2018-02-14T10:19:29.950Z,53.31
2018-02-14T10:21:57.525Z,57.00
2018-02-14T10:24:25.080Z,57.93
2018-02-14T10:26:52.673Z,59.82
2018-02-14T10:29:20.199Z,60.47
2018-02-14T10:31:47.807Z,61.39
2018-02-14T10:34:15.359Z,63.17
2018-02-14T10:36:42.853Z,58.16
2018-02-14T10:39:10.481Z,61.67
2018-02-14T10:41:38.004Z,60.40
2018-02-14T10:44:05.568Z,60.07
2018-02-14T10:46:33.086Z,63.71
2018-02-14T10:49:00.626Z,64.62
2018-02-14T10:51:28.148Z,64.71
2018-02-14T10:53:55.661Z,64.68
2018-02-14T10:56:23.210Z,66.63
2018-02-14T10:58:50.699Z,64.28
2018-02-14T11:01:23.877Z,64.24
2018-02-14T11:03:51.431Z,64.63
2018-02-14T11:06:18.950Z,65.00
2018-02-14T11:08:46.500Z,66.09
2018-02-14T11:11:14.009Z,67.32
2018-02-14T11:13:41.536Z,65.72
2018-02-14T11:16:09.061Z,65.62
2018-02-14T11:18:36.618Z,64.70
2018-02-14T11:21:04.142Z,63.72
2018-02-14T11:23:31.704Z,63.08
2018-02-14T11:25:59.200Z,61.55
2018-02-14T11:28:26.794Z,60.59
2018-02-14T11:30:54.315Z,61.58
2018-02-14T11:33:22.185Z,60.47
2018-02-14T11:35:49.691Z,60.05
2018-02-14T11:38:17.196Z,61.40
2018-02-14T11:40:44.735Z,61.45
2018-02-14T11:43:12.248Z,61.04
2018-02-14T11:45:39.729Z,61.77
2018-02-14T11:48:07.312Z,61.52
2018-02-14T11:50:34.851Z,61.56
2018-02-14T11:53:02.377Z,62.50
2018-02-14T11:55:29.914Z,65.11
2018-02-14T11:57:57.450Z,63.43
2018-02-14T12:00:25.054Z,63.52
2018-02-14T12:02:52.570Z,63.00
2018-02-14T12:05:20.099Z,62.09
2018-02-14T12:07:47.628Z,62.35
2018-02-14T12:10:15.136Z,60.90
2018-02-14T12:12:42.636Z,62.46
2018-02-14T12:15:10.216Z,61.86
2018-02-14T12:17:37.704Z,59.09
2018-02-14T12:20:05.210Z,57.76
2018-02-14T12:22:32.781Z,60.14
2018-02-14T12:25:00.270Z,60.25
2018-02-14T12:27:27.787Z,58.54
2018-02-14T12:30:00.369Z,57.43
2018-02-14T12:32:27.880Z,58.03
2018-02-14T12:34:55.434Z,59.38
2018-02-14T12:37:22.962Z,59.32
2018-02-14T12:39:51.688Z,58.86
2018-02-14T12:42:19.862Z,58.48
2018-02-14T12:44:47.741Z,60.63
2018-02-14T12:47:17.017Z,59.24
2018-02-14T12:49:44.699Z,61.08
2018-02-14T12:52:13.245Z,59.65
2018-02-14T12:54:40.826Z,60.31
2018-02-14T12:57:08.373Z,60.29
2018-02-14T12:59:38.006Z,56.88
2018-02-14T13:02:05.511Z,57.89
2018-02-14T13:04:33.026Z,57.63
2018-02-14T13:07:00.590Z,57.44
2018-02-14T13:09:28.090Z,57.17
2018-02-14T13:11:56.937Z,57.35
2018-02-14T13:14:24.490Z,58.60
2018-02-14T13:16:54.307Z,59.47
2018-02-14T13:19:23.038Z,60.23
2018-02-14T13:21:51.857Z,61.76
2018-02-14T13:24:19.448Z,61.60
2018-02-14T13:26:47.094Z,61.22
2018-02-14T13:29:14.746Z,59.60
2018-02-14T13:31:42.296Z,60.08
2018-02-14T13:34:09.862Z,61.82
2018-02-14T13:36:37.656Z,61.01
2018-02-14T13:39:06.733Z,60.87
2018-02-14T13:41:35.215Z,62.27
2018-02-14T13:44:02.757Z,61.75
2018-02-14T13:46:30.261Z,62.36
2018-02-14T13:49:01.640Z,62.80
2018-02-14T13:51:29.243Z,63.42
2018-02-14T13:53:56.798Z,64.39
2018-02-14T13:56:26.948Z,63.25
2018-02-14T13:58:57.057Z,65.51
2018-02-14T14:01:24.593Z,63.51
2018-02-14T14:03:52.227Z,62.96
2018-02-14T14:06:19.819Z,63.40
2018-02-14T14:08:47.382Z,64.16
2018-02-14T14:11:15.153Z,64.54
2018-02-14T14:13:42.730Z,65.76
2018-02-14T14:16:10.266Z,65.15
2018-02-14T14:18:37.892Z,65.85
2018-02-14T14:21:05.490Z,66.21
2018-02-14T14:23:33.059Z,68.04
2018-02-14T14:26:00.601Z,67.24
2018-02-14T14:28:28.173Z,67.08
2018-02-14T14:30:55.719Z,67.64
2018-02-14T14:33:23.237Z,66.97
2018-02-14T14:35:50.868Z,67.04
2018-02-14T14:38:18.743Z,67.76
2018-02-14T14:40:46.692Z,67.22
2018-02-14T14:43:14.241Z,67.38
2018-02-14T14:45:41.760Z,66.83
2018-02-14T14:48:09.281Z,66.59
2018-02-14T14:50:39.836Z,66.86
2018-02-14T14:53:07.360Z,68.26
2018-02-14T14:55:34.914Z,67.12
2018-02-14T14:58:02.461Z,67.25
2018-02-14T15:00:30.040Z,67.76
2018-02-14T15:02:58.177Z,67.30
2018-02-14T15:05:28.334Z,66.68
2018-02-14T15:07:56.747Z,66.29
2018-02-14T15:10:26.867Z,66.25
2018-02-14T15:12:55.876Z,66.51
2018-02-14T15:15:24.516Z,67.58
2018-02-14T15:17:52.407Z,67.02
2018-02-14T15:20:21.109Z,67.57
2018-02-14T15:22:49.253Z,68.84
2018-02-14T15:25:17.650Z,68.74
2018-02-14T15:27:46.023Z,68.10
2018-02-14T15:30:13.622Z,67.67
2018-02-14T15:32:41.203Z,68.89
2018-02-14T15:35:09.120Z,68.93
2018-02-14T15:37:36.629Z,68.36
2018-02-14T15:40:04.125Z,68.73
2018-02-14T15:45:22.040Z,70.04
2018-02-14T15:47:49.596Z,69.00
2018-02-14T15:50:17.201Z,69.32
2018-02-14T15:52:44.740Z,69.46
2018-02-14T15:55:12.478Z,70.41
2018-02-14T15:57:40.009Z,70.74
2018-02-14T16:00:08.551Z,71.09
2018-02-14T16:02:36.081Z,72.05
2018-02-14T16:05:03.820Z,71.22
2018-02-14T16:07:31.433Z,70.46
2018-02-14T16:09:59.073Z,70.30
2018-02-14T16:12:27.056Z,71.51
2018-02-14T16:14:54.632Z,71.98
2018-02-14T16:17:22.172Z,72.15
2018-02-14T16:19:49.797Z,71.90
2018-02-14T16:22:17.389Z,72.42
2018-02-14T16:24:45.576Z,72.13
2018-02-14T16:27:13.236Z,72.81
2018-02-14T16:29:40.825Z,72.99
2018-02-14T16:32:08.525Z,72.89
2018-02-14T16:34:38.346Z,73.21
2018-02-14T16:37:07.093Z,72.89
2018-02-14T16:39:35.067Z,73.16
2018-02-14T16:42:04.177Z,73.84
2018-02-14T16:44:31.836Z,73.69
2018-02-14T16:46:59.496Z,74.27
2018-02-14T16:49:27.051Z,74.34
2018-02-14T16:51:54.722Z,75.14
2018-02-14T16:54:22.967Z,74.74
2018-02-14T16:56:51.026Z,75.17
2018-02-14T16:59:18.590Z,75.61
2018-02-14T17:01:47.352Z,75.68
2018-02-14T17:04:15.047Z,76.14
2018-02-14T17:06:43.203Z,76.21
2018-02-14T17:09:10.982Z,77.42
2018-02-14T17:11:38.550Z,77.42
2018-02-14T17:14:06.082Z,78.40
2018-02-14T17:16:33.610Z,77.66
2018-02-14T17:19:01.193Z,78.66
2018-02-14T17:21:28.753Z,78.19
2018-02-14T17:23:56.357Z,78.17
2018-02-14T17:26:23.916Z,78.33
2018-02-14T17:28:51.474Z,78.27
2018-02-14T17:31:19.027Z,78.50
2018-02-14T17:33:46.614Z,78.56
2018-02-14T17:36:14.338Z,78.54
2018-02-14T17:38:42.430Z,79.06
2018-02-14T17:41:10.074Z,79.20
2018-02-14T17:43:37.730Z,78.92
2018-02-14T17:46:05.288Z,79.78
2018-02-14T17:48:32.869Z,79.20
2018-02-14T17:51:00.457Z,79.74
2018-02-14T17:53:28.203Z,79.57
2018-02-14T17:55:55.952Z,79.62
2018-02-14T17:58:23.558Z,79.56
2018-02-14T18:00:51.152Z,79.93
2018-02-14T18:03:18.713Z,79.93
2018-02-14T18:05:46.316Z,80.31
2018-02-14T18:08:13.872Z,80.38
2018-02-14T18:10:41.503Z,80.30
2018-02-14T18:13:09.029Z,80.69
2018-02-14T18:15:36.626Z,81.05
2018-02-14T18:18:06.894Z,81.09
2018-02-14T18:20:34.422Z,80.80
2018-02-14T18:23:02.037Z,80.70
2018-02-14T18:25:29.547Z,81.25
2018-02-14T18:27:57.150Z,81.03
2018-02-14T18:30:24.767Z,81.70
2018-02-14T18:32:52.315Z,80.99
2018-02-14T18:35:19.888Z,80.87
2018-02-14T18:37:47.434Z,80.92
2018-02-14T18:40:14.948Z,81.16
2018-02-14T18:42:42.516Z,81.55
2018-02-14T18:45:10.022Z,81.33
2018-02-14T18:47:38.392Z,81.19
2018-02-14T18:50:05.968Z,81.12
2018-02-14T18:52:33.538Z,81.43
2018-02-14T18:55:01.096Z,81.27
2018-02-14T18:57:28.693Z,81.26
2018-02-14T18:59:56.225Z,81.42
2018-02-14T19:02:23.766Z,81.09
2018-02-14T19:04:51.524Z,80.85
2018-02-14T19:07:19.175Z,80.62
2018-02-14T19:09:46.779Z,80.69
2018-02-14T19:12:14.392Z,80.71
2018-02-14T19:14:41.961Z,80.61
2018-02-14T19:17:09.622Z,80.39
2018-02-14T19:19:37.297Z,80.22
2018-02-14T19:22:04.845Z,79.76
2018-02-14T19:24:32.403Z,80.29
2018-02-14T19:26:59.982Z,80.57
2018-02-14T19:29:27.564Z,80.52
2018-02-14T19:31:55.149Z,80.92
2018-02-14T19:34:22.666Z,81.05
2018-02-14T19:36:50.717Z,80.76
2018-02-14T19:39:18.398Z,80.87
2018-02-14T19:41:45.945Z,80.75
2018-02-14T19:44:13.461Z,80.77
2018-02-14T19:46:41.026Z,80.26
2018-02-14T19:49:08.564Z,80.32
2018-02-14T19:51:36.097Z,80.50
2018-02-14T19:54:03.749Z,81.11
2018-02-14T19:56:31.253Z,80.51
2018-02-14T19:58:58.845Z,80.20
2018-02-14T20:01:26.353Z,80.45
2018-02-14T20:03:53.972Z,80.33
2018-02-14T20:06:21.487Z,80.14
2018-02-14T20:08:49.032Z,80.34
2018-02-14T20:11:16.572Z,80.21
2018-02-14T20:13:44.143Z,80.52
2018-02-14T20:16:11.631Z,80.46
2018-02-14T20:18:39.267Z,80.16
2018-02-14T20:21:06.750Z,80.55
2018-02-14T20:23:34.416Z,80.33
2018-02-14T20:26:02.025Z,80.40
2018-02-14T20:28:30.706Z,80.84
2018-02-14T20:30:58.204Z,80.68
2018-02-14T20:33:25.730Z,81.13
2018-02-14T20:35:53.360Z,81.42
2018-02-14T20:38:20.860Z,81.63
2018-02-14T20:40:48.337Z,81.19
2018-02-14T20:43:15.942Z,81.10
2018-02-14T20:45:43.433Z,81.20
2018-02-14T20:48:10.923Z,81.35
2018-02-14T20:50:39.405Z,81.36
2018-02-14T20:53:06.900Z,81.44
2018-02-14T20:55:34.395Z,81.21
2018-02-14T20:58:01.892Z,80.97
2018-02-14T21:00:29.378Z,80.57
2018-02-14T21:02:56.929Z,80.58
2018-02-14T21:05:25.900Z,80.74
2018-02-14T21:07:53.373Z,80.82
2018-02-14T21:10:20.874Z,80.95
2018-02-14T21:12:48.410Z,81.14
2018-02-14T21:15:15.908Z,81.07
2018-02-14T21:17:43.440Z,81.33
2018-02-14T21:20:10.938Z,81.20
2018-02-14T21:22:38.526Z,81.32
2018-02-14T21:25:06.180Z,81.62
2018-02-14T21:27:33.685Z,81.49
2018-02-14T21:30:13.865Z,81.25
2018-02-14T21:32:42.172Z,81.50
2018-02-14T21:35:09.657Z,81.58
2018-02-14T21:37:37.136Z,81.32
2018-02-14T21:40:04.622Z,81.16
2018-02-14T21:42:32.108Z,80.80
2018-02-14T21:44:59.604Z,81.28
2018-02-14T21:47:27.091Z,81.19
2018-02-14T21:49:54.656Z,80.95
2018-02-14T21:52:22.159Z,80.80
2018-02-14T21:54:49.696Z,80.74
2018-02-14T21:57:17.169Z,80.50
2018-02-14T21:59:44.679Z,80.29
2018-02-14T22:02:12.183Z,80.17
2018-02-14T22:04:39.657Z,79.97
2018-02-14T22:07:07.168Z,80.17
2018-02-14T22:09:34.685Z,80.44
2018-02-14T22:12:02.157Z,80.24
2018-02-14T22:14:29.648Z,80.21
2018-02-14T22:16:57.158Z,80.57
2018-02-14T22:19:24.630Z,81.07
2018-02-14T22:21:52.105Z,80.92
2018-02-14T22:24:19.600Z,81.88
2018-02-14T22:26:47.097Z,81.29
2018-02-14T22:29:14.589Z,80.88
2018-02-14T22:31:42.063Z,80.90
2018-02-14T22:34:09.557Z,80.71
2018-02-14T22:36:37.072Z,81.39
2018-02-14T22:39:04.600Z,81.24
2018-02-14T22:41:32.076Z,80.51
2018-02-14T22:43:59.573Z,80.70
2018-02-14T22:46:27.077Z,80.64
2018-02-14T22:48:54.569Z,80.92
2018-02-14T22:51:22.091Z,80.99
2018-02-14T22:53:49.584Z,81.78
2018-02-14T22:56:17.076Z,81.52
2018-02-14T22:58:44.607Z,81.47
2018-02-14T23:01:12.090Z,81.94
2018-02-14T23:03:39.607Z,82.02
2018-02-14T23:06:07.092Z,82.14
2018-02-14T23:08:34.604Z,81.53
2018-02-14T23:11:02.100Z,81.60
2018-02-14T23:13:29.593Z,81.60
2018-02-14T23:15:57.105Z,81.52
2018-02-14T23:18:24.612Z,82.03
2018-02-14T23:20:52.111Z,81.53
2018-02-14T23:23:19.628Z,81.21
2018-02-14T23:25:47.090Z,81.09
2018-02-14T23:28:14.581Z,80.98
2018-02-14T23:30:42.058Z,80.95
2018-02-14T23:33:09.555Z,81.20
2018-02-14T23:35:37.071Z,80.99
2018-02-14T23:38:04.612Z,80.68
2018-02-14T23:40:32.090Z,80.65
2018-02-14T23:42:59.588Z,80.86
2018-02-14T23:45:27.109Z,80.62
2018-02-14T23:47:54.598Z,80.66
2018-02-14T23:50:22.078Z,80.86
2018-02-14T23:52:49.573Z,80.96
2018-02-14T23:55:17.084Z,80.98
2018-02-14T23:57:44.647Z,81.33
